Terminal Aerodrome Forecast
Issued by NWS Medford, OR

Home | Current Version | Previous Version | Text Only | Print | Product List | Glossary On
Versions: 1 2 3 4 5 6 7 8 9 10 11 12 13
000
FTUS46 KMFR 022332
TAFMFR
TAF
KMFR 022332Z 0300/0324 28007KT P6SM VCTS SCT050CB BKN080
     FM030300 30004KT P6SM SCT050 BKN250
     FM032000 32008KT P6SM VCSH BKN050=

USA.gov is the U.S. government's official web portal to all federal, state and local government web resources and services.